Friday, January 19, 2018, 10:39 AM EST
Back to Local

KJFK, Kennedy International Airport

Location: Rosedale, NY, United States Lat: 40.633
Local Time: 10:39 AM EST (15:39 GMT) Lon: -73.767
Time Zone: US/Eastern Elev: 13 ft

Show me the last for .
Show Decoded

2018-01-19 09:51 METAR KJFK 191451Z 24012KT 10SM BKN210 00/M09 A3010 RMK AO2 SLP193 T00001089
                 53006 $ =
2018-01-19 08:51 METAR KJFK 191351Z 24011KT 10SM BKN220 M01/M08 A3010 RMK AO2 SLP191 T10111078 $
                 =
2018-01-19 07:51 METAR KJFK 191251Z 24010KT 10SM BKN220 M03/M08 A3008 RMK AO2 SLP186 T10281078 $
                 =
2018-01-19 06:51 METAR KJFK 191151Z 25008KT 10SM SCT240 M03/M09 A3008 RMK AO2 SLP187 T10331089
                 11033 21056 53002 $ =
2018-01-19 05:51 METAR KJFK 191051Z 24005KT 10SM SCT250 M05/M09 A3008 RMK AO2 SLP186 T10501089 $
                 =
2018-01-19 04:51 METAR KJFK 190951Z 25007KT 10SM FEW050 M04/M09 A3008 RMK AO2 SLP184 T10391094 $
                 =
2018-01-19 03:51 METAR KJFK 190851Z 27009KT 10SM CLR M04/M10 A3008 RMK AO2 SLP184 T10391100 53005
                 $ =
2018-01-19 02:51 METAR KJFK 190751Z 28007KT 10SM CLR M04/M11 A3006 RMK AO2 SLP179 T10391106 $ =
2018-01-19 01:51 METAR KJFK 190651Z 28007KT 10SM CLR M04/M11 A3006 RMK AO2 SLP178 T10391106 $ =
2018-01-19 00:51 METAR KJFK 190551Z 29010KT 10SM CLR M03/M11 A3006 RMK AO2 SLP179 T10331106 11011
                 21039 58011 $ =
2018-01-18 23:51 METAR KJFK 190451Z 30008KT 10SM CLR M03/M11 A3009 RMK AO2 SLP187 T10331106
                 400111072 $ =
2018-01-18 22:51 METAR KJFK 190351Z 32012KT 10SM FEW250 M03/M11 A3009 RMK AO2 SLP188 T10281106 $
                 =
2018-01-18 21:51 METAR KJFK 190251Z 33013KT 10SM FEW250 M02/M11 A3010 RMK AO2 SLP191 T10221106
                 52021 $ =
2018-01-18 20:51 METAR KJFK 190151Z 32012KT 10SM CLR M02/M11 A3008 RMK AO2 SLP185 T10221106 $ =
2018-01-18 19:51 METAR KJFK 190051Z 32012KT 10SM CLR M02/M11 A3005 RMK AO2 SLP175 T10171106 $ =
2018-01-18 18:51 METAR KJFK 182351Z 32014KT 10SM CLR M01/M11 A3003 RMK AO2 SLP170 T10111106 10011
                 21011 53030 $ =
2018-01-18 17:51 METAR KJFK 182251Z 31014G19KT 10SM CLR M01/M11 A3000 RMK AO2 SLP157 T10061106 $
                 =
2018-01-18 16:51 METAR KJFK 182151Z 32013KT 10SM CLR 00/M11 A2996 RMK AO2 SLP144 T00001111 $ =
2018-01-18 15:51 METAR KJFK 182051Z 31015KT 10SM CLR 01/M12 A2994 RMK AO2 SLP139 T00061117 55003
                 $ =
2018-01-18 14:51 METAR KJFK 181951Z 31015G20KT 10SM FEW250 01/M12 A2993 RMK AO2 SLP136 T00061122
                 $ =
2018-01-18 13:51 METAR KJFK 181851Z 30017KT 10SM FEW250 01/M13 A2993 RMK AO2 SLP136 T00061128 $ =
2018-01-18 12:51 METAR KJFK 181751Z 31014KT 10SM FEW250 01/M13 A2995 RMK AO2 SLP142 T00061128
                 10006 21072 56045 $ =
2018-01-18 11:51 METAR KJFK 181651Z 29014KT 10SM FEW250 M01/M13 A2999 RMK AO2 SLP155 T10061128 $
                 =
2018-01-18 10:51 METAR KJFK 181551Z 32013KT 10SM FEW200 M02/M13 A3005 RMK AO2 SLP174 T10171128 $
                 =

Support USWX by starting your Amazon purchase here.